Time;durP1;ratioP1;P1;durP2;ratioP2;P2;SDS_P1;SDS_P2;PMS_P1;PMS_P2;Temp;Humidity;BMP_temperature;BMP_pressure;BME280_temperature;BME280_humidity;BME280_pressure;Samples;Min_cycle;Max_cycle;Signal;HPM_P1;HPM_P2
2021/06/07 00:01:43;;;;;;;5.50;2.10;;;;;;;20.63;55.76;101399.20;1704833;84;21070;-49
2021/06/07 00:04:10;;;;;;;3.20;2.30;;;;;;;20.61;55.66;101397.11;1704646;84;21090;-49
2021/06/07 00:06:37;;;;;;;2.30;2.10;;;;;;;20.59;55.61;101401.12;1704666;83;21080;-49
2021/06/07 00:09:09;;;;;;;5.90;2.58;;;;;;;20.58;55.70;101396.80;1692724;84;21081;-50
2021/06/07 00:11:40;;;;;;;3.47;2.20;;;;;;;20.57;55.70;101395.06;1704532;84;21042;-48
2021/06/07 00:14:08;;;;;;;4.70;2.00;;;;;;;20.55;55.79;101395.62;1704786;83;21061;-49
2021/06/07 00:16:37;;;;;;;2.85;2.30;;;;;;;20.52;55.83;101389.19;1704703;84;21081;-49
2021/06/07 00:19:09;;;;;;;3.77;2.30;;;;;;;20.49;55.75;101395.94;1704444;84;21140;-49
2021/06/07 00:21:39;;;;;;;2.70;2.08;;;;;;;20.48;55.71;101399.53;1661804;86;21057;-50
2021/06/07 00:24:08;;;;;;;5.33;2.08;;;;;;;20.45;55.67;101394.86;1670957;85;21527;-50
2021/06/07 00:26:37;;;;;;;4.78;2.37;;;;;;;20.43;55.71;101393.63;1680047;85;21095;-49
2021/06/07 00:29:06;;;;;;;2.83;2.33;;;;;;;20.49;55.53;101397.27;1657063;85;21211;-49
2021/06/07 00:31:34;;;;;;;5.15;2.17;;;;;;;20.50;55.33;101393.70;1656372;85;21051;-49
2021/06/07 00:34:01;;;;;;;3.50;2.27;;;;;;;20.51;55.23;101386.60;1656440;85;21024;-50
2021/06/07 00:36:27;;;;;;;7.50;2.60;;;;;;;20.53;55.21;101390.88;1656379;87;21519;-49
2021/06/07 00:38:54;;;;;;;3.77;2.25;;;;;;;20.53;55.12;101388.23;1656016;86;21092;-49
2021/06/07 00:41:23;;;;;;;7.83;2.60;;;;;;;20.53;55.20;101385.59;1656004;85;21079;-49
2021/06/07 00:43:56;;;;;;;6.65;2.40;;;;;;;20.53;55.26;101389.55;1656180;85;21059;-49
2021/06/07 00:46:24;;;;;;;6.45;2.20;;;;;;;20.50;55.18;101385.77;1606493;88;21125;-49
2021/06/07 00:48:52;;;;;;;4.20;2.60;;;;;;;20.50;55.21;101384.91;1606344;88;21057;-49
2021/06/07 00:51:19;;;;;;;2.85;2.55;;;;;;;20.48;55.30;101388.96;1588376;88;21689;-50
2021/06/07 00:53:47;;;;;;;2.15;2.00;;;;;;;20.41;55.47;101388.02;1606197;88;21101;-49
2021/06/07 00:56:15;;;;;;;4.42;3.22;;;;;;;20.35;55.50;101379.09;1606629;88;21541;-49
2021/06/07 00:58:47;;;;;;;6.00;2.75;;;;;;;20.35;55.50;101375.13;1606115;88;21541;-49
2021/06/07 01:01:24;;;;;;;4.12;2.17;;;;;;;20.35;55.64;101378.63;1604543;88;21049;-49
2021/06/07 01:03:53;;;;;;;3.72;2.15;;;;;;;20.34;55.59;101387.48;1604054;88;21545;-50
2021/06/07 01:06:20;;;;;;;3.42;2.20;;;;;;;20.32;55.46;101389.34;1606497;89;21018;-49
2021/06/07 01:08:47;;;;;;;4.50;2.62;;;;;;;20.27;55.45;101387.43;1606343;88;21069;-49
2021/06/07 01:11:14;;;;;;;3.87;2.50;;;;;;;20.22;55.50;101381.52;1606522;88;21509;-48
2021/06/07 01:13:44;;;;;;;9.48;3.00;;;;;;;20.20;55.68;101384.70;1606332;88;21113;-48
2021/06/07 01:16:10;;;;;;;2.47;2.27;;;;;;;20.18;55.56;101392.69;1606786;88;21054;-49
2021/06/07 01:18:37;;;;;;;2.60;2.40;;;;;;;20.15;55.49;101394.64;1659231;85;21030;-49
2021/06/07 01:21:11;;;;;;;5.28;2.35;;;;;;;20.12;55.56;101384.21;1692723;85;21022;-49
2021/06/07 01:23:39;;;;;;;3.95;2.25;;;;;;;20.11;55.58;101387.31;1690366;85;21042;-50
2021/06/07 01:26:06;;;;;;;2.30;2.10;;;;;;;20.07;55.51;101380.97;1692923;85;21054;-49
2021/06/07 01:28:34;;;;;;;3.35;2.47;;;;;;;20.06;55.56;101389.81;1676084;85;21066;-49
2021/06/07 01:31:01;;;;;;;2.80;1.85;;;;;;;20.07;55.58;101380.97;1694001;85;21063;-49
2021/06/07 01:33:28;;;;;;;3.77;2.10;;;;;;;20.06;55.58;101381.88;1723817;83;21574;-49
2021/06/07 01:35:57;;;;;;;2.92;2.25;;;;;;;20.13;55.34;101385.94;1688976;85;21079;-49
2021/06/07 01:38:25;;;;;;;7.10;1.92;;;;;;;20.09;55.38;101390.98;1688924;85;21543;-48
2021/06/07 01:40:55;;;;;;;3.95;2.20;;;;;;;20.09;55.42;101379.09;1688915;85;20996;-49
2021/06/07 01:43:21;;;;;;;3.25;2.17;;;;;;;20.12;55.32;101386.85;1709411;83;21018;-48
2021/06/07 01:45:50;;;;;;;4.00;2.20;;;;;;;20.11;55.32;101388.63;1771460;80;21072;-49
2021/06/07 01:48:17;;;;;;;3.10;2.10;;;;;;;20.13;55.30;101382.80;1771490;80;20997;-48
2021/06/07 01:50:44;;;;;;;3.75;2.22;;;;;;;20.24;54.84;101383.61;1771034;80;21031;-49
2021/06/07 01:53:13;;;;;;;5.30;2.00;;;;;;;20.28;54.72;101390.44;1769915;80;21003;-49
2021/06/07 01:55:49;;;;;;;6.30;2.15;;;;;;;20.21;54.88;101383.78;1773816;80;21057;-49
2021/06/07 01:58:18;;;;;;;3.55;2.12;;;;;;;20.22;54.90;101381.52;1769414;80;20975;-49
2021/06/07 02:00:55;;;;;;;4.78;1.82;;;;;;;20.27;54.87;101383.47;1771305;80;21009;-48
2021/06/07 02:03:23;;;;;;;2.87;1.90;;;;;;;20.28;54.70;101379.87;1766445;80;21066;-49
2021/06/07 02:05:54;;;;;;;4.60;2.20;;;;;;;20.29;54.70;101380.27;1772638;80;21034;-49
2021/06/07 02:08:20;;;;;;;4.80;2.20;;;;;;;20.30;54.60;101379.33;1773310;80;21005;-49
2021/06/07 02:10:52;;;;;;;4.03;2.35;;;;;;;20.32;54.53;101376.13;1779752;80;21015;-49
2021/06/07 02:13:19;;;;;;;3.02;2.20;;;;;;;20.34;54.35;101379.55;1747809;81;21019;-49
2021/06/07 02:15:59;;;;;;;3.17;1.92;;;;;;;20.36;54.38;101377.69;1706992;83;21667;-49
2021/06/07 02:18:27;;;;;;;3.87;2.30;;;;;;;20.37;54.38;101378.55;1699559;83;21320;-50
2021/06/07 02:20:53;;;;;;;3.52;2.10;;;;;;;20.38;54.52;101371.84;1690581;85;21095;-50
2021/06/07 02:23:21;;;;;;;3.65;1.98;;;;;;;20.38;54.49;101378.45;1702408;83;21046;-48
2021/06/07 02:25:48;;;;;;;3.90;1.90;;;;;;;20.41;54.39;101375.67;1706589;83;21111;-49
2021/06/07 02:28:16;;;;;;;3.45;1.87;;;;;;;20.41;54.20;101376.13;1697444;83;21574;-49
2021/06/07 02:30:44;;;;;;;3.05;1.90;;;;;;;20.40;54.15;101375.30;1688249;85;21123;-49
2021/06/07 02:33:11;;;;;;;3.27;2.15;;;;;;;20.33;54.43;101381.83;1694233;84;21066;-49
2021/06/07 02:35:38;;;;;;;4.28;1.72;;;;;;;20.43;54.27;101377.77;1688213;85;21090;-49
2021/06/07 02:38:05;;;;;;;1.95;1.65;;;;;;;20.47;54.30;101376.66;1676630;85;21082;-49
2021/06/07 02:40:32;;;;;;;2.95;1.50;;;;;;;20.52;54.22;101379.94;1695131;84;21028;-49
2021/06/07 02:42:59;;;;;;;3.25;2.00;;;;;;;20.57;54.24;101387.14;1688582;85;21019;-49
2021/06/07 02:45:27;;;;;;;2.85;2.02;;;;;;;20.60;54.23;101383.02;1670347;85;21059;-49
2021/06/07 02:47:57;;;;;;;4.20;2.20;;;;;;;20.66;54.09;101387.13;1692173;84;21578;-48
2021/06/07 02:50:27;;;;;;;2.62;1.90;;;;;;;20.60;54.24;101388.31;1688217;85;21058;-50
2021/06/07 02:52:54;;;;;;;2.67;1.95;;;;;;;20.71;53.81;101393.03;1693923;84;21031;-50
2021/06/07 02:55:26;;;;;;;3.55;1.85;;;;;;;20.69;53.79;101399.70;1688227;85;21082;-49
2021/06/07 02:57:53;;;;;;;;;;;;;;;20.69;53.72;101397.55;1696729;84;21039;-49
2021/06/07 03:00:28;;;;;;;3.75;2.00;;;;;;;20.68;53.64;101402.44;1694037;84;20408;-49
2021/06/07 03:02:57;;;;;;;2.75;1.70;;;;;;;20.67;53.75;101404.22;1589319;90;21089;-50
2021/06/07 03:05:24;;;;;;;2.87;2.20;;;;;;;20.67;53.67;101402.06;1589737;90;21518;-50
2021/06/07 03:07:51;;;;;;;2.72;2.20;;;;;;;20.66;53.47;101405.17;1563980;92;21118;-49
2021/06/07 03:10:18;;;;;;;8.58;2.30;;;;;;;20.66;53.55;101406.49;1547458;92;21584;-50
2021/06/07 03:12:46;;;;;;;2.55;1.90;;;;;;;20.66;53.64;101407.81;1592296;89;21069;-49
2021/06/07 03:15:15;;;;;;;3.30;2.00;;;;;;;20.67;53.66;101412.16;1592335;90;21048;-50
2021/06/07 03:17:42;;;;;;;3.02;1.95;;;;;;;20.68;53.51;101414.34;1592410;89;21044;-49
2021/06/07 03:20:12;;;;;;;3.55;2.00;;;;;;;20.68;53.50;101413.88;1592647;90;21556;-50
2021/06/07 03:22:38;;;;;;;2.77;1.82;;;;;;;20.71;53.49;101413.70;1592493;90;21052;-50
2021/06/07 03:25:07;;;;;;;2.55;2.02;;;;;;;20.74;53.46;101408.72;1592487;90;21117;-49
2021/06/07 03:27:34;;;;;;;5.83;2.00;;;;;;;20.77;53.38;101413.37;1592665;90;21093;-49
2021/06/07 03:30:01;;;;;;;2.45;1.90;;;;;;;20.79;53.53;101414.14;1617835;89;21152;-49
2021/06/07 03:32:28;;;;;;;2.37;1.92;;;;;;;20.83;53.55;101417.04;1617916;89;21078;-49
2021/06/07 03:34:54;;;;;;;5.70;2.00;;;;;;;20.86;53.47;101420.83;1617848;89;21111;-50
2021/06/07 03:37:21;;;;;;;2.20;2.00;;;;;;;20.91;53.51;101417.94;1617961;89;21075;-49
2021/06/07 03:39:48;;;;;;;2.95;1.65;;;;;;;20.95;53.61;101414.19;1617838;89;21606;-49
2021/06/07 03:42:15;;;;;;;3.62;1.98;;;;;;;21.06;54.08;101422.45;1617852;89;21098;-50
2021/06/07 03:44:42;;;;;;;1.87;1.77;;;;;;;21.28;53.87;101412.84;1617986;89;21158;-49
2021/06/07 03:47:09;;;;;;;3.58;1.90;;;;;;;21.51;53.28;101411.09;1617957;89;21079;-50
2021/06/07 03:49:36;;;;;;;3.20;2.15;;;;;;;21.81;52.76;101414.62;1617913;87;21110;-50
2021/06/07 03:52:04;;;;;;;3.10;1.90;;;;;;;22.07;52.27;101415.30;1617800;89;21059;-49
2021/06/07 03:54:30;;;;;;;7.30;1.90;;;;;;;22.36;51.24;101410.45;1618005;87;21086;-50
2021/06/07 03:56:57;;;;;;;4.15;1.95;;;;;;;22.74;51.04;101416.59;1617995;89;21590;-49
2021/06/07 03:59:24;;;;;;;3.00;1.80;;;;;;;23.19;49.88;101419.02;1621152;87;21069;-49
2021/06/07 04:01:51;;;;;;;2.65;1.77;;;;;;;23.68;48.25;101416.27;1625665;88;21574;-50
2021/06/07 04:04:18;;;;;;;3.52;2.02;;;;;;;23.99;47.31;101405.30;1625559;87;21172;-49
2021/06/07 04:06:44;;;;;;;2.60;1.82;;;;;;;24.13;46.82;101409.25;1721718;81;21086;-49
2021/06/07 04:09:11;;;;;;;3.70;1.70;;;;;;;24.13;46.53;101411.91;1741404;82;21022;-48
2021/06/07 04:11:38;;;;;;;3.45;2.12;;;;;;;24.04;46.52;101404.56;1741144;82;21015;-50
2021/06/07 04:14:06;;;;;;;6.80;2.52;;;;;;;23.92;46.45;101408.48;1743604;82;20999;-50
2021/06/07 04:16:32;;;;;;;2.72;2.20;;;;;;;23.74;46.84;101420.34;1740502;82;21066;-49
2021/06/07 04:18:59;;;;;;;4.42;2.27;;;;;;;23.58;47.20;101415.16;1741997;82;21026;-49
2021/06/07 04:21:26;;;;;;;3.15;2.12;;;;;;;23.38;47.67;101419.59;1749693;82;20990;-49
2021/06/07 04:23:52;;;;;;;2.77;2.50;;;;;;;23.21;47.87;101418.45;1737706;82;21081;-50
2021/06/07 04:26:21;;;;;;;5.28;2.33;;;;;;;23.05;48.33;101419.05;1737759;82;21521;-49
2021/06/07 04:28:48;;;;;;;2.55;2.12;;;;;;;22.92;48.83;101418.09;1750849;81;21133;-50
2021/06/07 04:31:15;;;;;;;2.75;2.30;;;;;;;22.80;49.38;101421.05;1762373;81;21104;-50
2021/06/07 04:33:41;;;;;;;3.33;1.87;;;;;;;22.74;49.90;101421.89;1774599;81;20998;-49
2021/06/07 04:36:08;;;;;;;5.55;2.60;;;;;;;22.67;50.33;101419.26;1777446;80;21022;-49
2021/06/07 04:38:35;;;;;;;7.78;2.47;;;;;;;22.55;50.98;101419.02;1765122;81;21004;-49
2021/06/07 04:41:02;;;;;;;3.77;2.52;;;;;;;22.58;51.21;101424.18;1755045;80;21452;-50
2021/06/07 04:43:30;;;;;;;6.78;2.67;;;;;;;22.56;51.36;101424.72;1777605;80;21530;-49
2021/06/07 04:45:57;;;;;;;11.75;3.30;;;;;;;22.55;51.66;101423.00;1775586;80;21027;-49
2021/06/07 04:48:24;;;;;;;3.80;2.80;;;;;;;22.57;51.96;101427.73;1766799;80;20968;-49
2021/06/07 04:50:52;;;;;;;2.65;2.27;;;;;;;22.58;52.21;101430.81;1771412;80;21051;-49
2021/06/07 04:53:18;;;;;;;6.10;2.62;;;;;;;22.51;52.61;101428.57;1771523;81;21014;-50
2021/06/07 04:55:48;;;;;;;5.20;2.83;;;;;;;22.53;52.82;101426.22;1765784;81;21030;-50
2021/06/07 04:58:18;;;;;;;6.22;2.55;;;;;;;22.50;53.15;101427.71;1767110;81;21018;-49
2021/06/07 05:00:49;;;;;;;5.55;3.25;;;;;;;22.49;53.52;101430.00;1741778;82;21474;-50
2021/06/07 05:03:15;;;;;;;5.83;3.07;;;;;;;22.53;53.54;101433.31;1740191;82;21001;-50
2021/06/07 05:05:44;;;;;;;4.95;2.52;;;;;;;22.62;53.44;101424.38;1731803;82;21100;-50
2021/06/07 05:08:10;;;;;;;8.43;3.20;;;;;;;22.78;53.17;101426.06;1688065;85;20975;-50
2021/06/07 05:10:38;;;;;;;7.05;3.17;;;;;;;22.95;52.52;101425.88;1743148;82;21103;-50
2021/06/07 05:13:05;;;;;;;7.55;2.83;;;;;;;23.11;52.31;101427.95;1735133;82;21554;-50
2021/06/07 05:15:32;;;;;;;8.05;3.47;;;;;;;23.27;51.91;101428.67;1736789;82;21045;-49
2021/06/07 05:17:59;;;;;;;6.42;2.72;;;;;;;23.45;51.51;101424.91;1737565;82;21509;-50
2021/06/07 05:20:27;;;;;;;4.45;2.60;;;;;;;23.59;51.03;101420.01;1736569;82;20994;-49
2021/06/07 05:22:54;;;;;;;6.92;3.10;;;;;;;23.69;50.63;101423.30;1735527;82;21018;-49
2021/06/07 05:25:22;;;;;;;4.75;2.85;;;;;;;23.78;50.59;101422.67;1735175;82;21472;-50
2021/06/07 05:27:50;;;;;;;3.60;2.67;;;;;;;23.85;50.30;101423.98;1736648;82;21512;-49
2021/06/07 05:30:18;;;;;;;7.33;2.80;;;;;;;23.95;50.16;101426.41;1692885;84;21054;-50
2021/06/07 05:32:45;;;;;;;6.85;3.42;;;;;;;24.08;49.88;101427.80;1689108;85;21054;-50
2021/06/07 05:35:14;;;;;;;7.60;2.62;;;;;;;24.14;49.73;101422.94;1712515;83;21050;-49
2021/06/07 05:37:41;;;;;;;4.37;2.47;;;;;;;24.23;49.69;101419.63;1675036;84;21070;-50
2021/06/07 05:40:09;;;;;;;5.03;2.37;;;;;;;24.32;49.75;101422.65;1756719;81;21041;-50
2021/06/07 05:42:37;;;;;;;7.47;2.92;;;;;;;24.44;49.89;101415.16;1693623;85;21045;-49
2021/06/07 05:45:05;;;;;;;3.60;2.40;;;;;;;24.55;49.65;101409.92;1710904;83;21498;-49
2021/06/07 05:47:32;;;;;;;5.50;2.35;;;;;;;24.66;48.99;101411.38;1693587;85;21609;-49
2021/06/07 05:49:59;;;;;;;6.10;3.10;;;;;;;24.77;48.57;101418.17;1713636;83;21030;-49
2021/06/07 05:52:26;;;;;;;8.03;3.35;;;;;;;24.87;48.61;101424.04;1743758;81;21049;-49
2021/06/07 05:54:52;;;;;;;5.20;2.70;;;;;;;24.95;48.17;101418.20;1743521;81;21029;-49
2021/06/07 05:57:19;;;;;;;3.83;2.77;;;;;;;25.05;47.81;101416.58;1757109;80;21065;-50
2021/06/07 05:59:48;;;;;;;4.20;2.40;;;;;;;25.14;47.63;101423.92;1778987;80;21061;-49
2021/06/07 06:02:15;;;;;;;8.15;2.58;;;;;;;25.18;47.71;101429.39;1775905;80;21509;-49
2021/06/07 06:04:42;;;;;;;6.30;2.90;;;;;;;25.23;47.60;101420.58;1777750;80;21039;-50
2021/06/07 06:07:08;;;;;;;6.40;2.92;;;;;;;25.32;47.48;101423.92;1786372;80;21010;-51
2021/06/07 06:09:36;;;;;;;4.08;2.50;;;;;;;25.43;46.68;101426.66;1776019;80;21667;-50
2021/06/07 06:12:04;;;;;;;5.78;2.83;;;;;;;25.51;46.29;101432.79;1792142;80;21423;-49
2021/06/07 06:14:31;;;;;;;6.12;3.30;;;;;;;25.65;46.38;101424.16;1775897;80;20987;-50
2021/06/07 06:16:58;;;;;;;4.65;2.95;;;;;;;25.91;45.84;101428.00;1778143;80;21018;-49
2021/06/07 06:19:25;;;;;;;4.55;2.83;;;;;;;26.19;45.26;101427.67;1778078;80;21605;-49
2021/06/07 06:21:52;;;;;;;9.18;2.55;;;;;;;26.39;44.50;101428.33;1777958;80;21085;-49
2021/06/07 06:24:19;;;;;;;4.85;2.50;;;;;;;26.50;44.32;101424.36;1778906;80;21490;-50
2021/06/07 06:26:46;;;;;;;5.12;2.60;;;;;;;26.41;44.56;101419.72;1777487;80;21010;-50
2021/06/07 06:29:13;;;;;;;6.97;3.00;;;;;;;26.41;44.56;101419.72;1776228;80;21046;-49
2021/06/07 06:31:39;;;;;;;7.03;3.50;;;;;;;26.38;44.71;101419.94;1786400;80;21539;-49
2021/06/07 06:34:06;;;;;;;4.50;3.10;;;;;;;26.32;44.96;101421.75;1779354;80;21025;-50
2021/06/07 06:36:34;;;;;;;5.65;3.45;;;;;;;26.27;44.97;101430.61;1770972;80;21023;-50
2021/06/07 06:39:02;;;;;;;4.58;3.35;;;;;;;26.20;44.86;101420.02;1774304;80;20966;-50
2021/06/07 06:41:30;;;;;;;7.40;2.87;;;;;;;26.10;45.20;101433.22;1775098;80;21014;-49
2021/06/07 06:43:58;;;;;;;4.08;3.27;;;;;;;25.92;45.81;101423.05;1778136;80;21011;-49
2021/06/07 06:46:25;;;;;;;3.85;2.87;;;;;;;25.97;46.05;101430.20;1783678;80;21034;-49
2021/06/07 06:48:53;;;;;;;7.08;3.33;;;;;;;25.17;48.16;101427.67;1775908;80;20946;-51
2021/06/07 06:51:20;;;;;;;4.25;3.08;;;;;;;24.98;49.02;101424.62;1770916;80;21530;-50
2021/06/07 06:53:48;;;;;;;4.95;3.17;;;;;;;24.97;49.51;101433.58;1769559;80;21026;-50
2021/06/07 06:56:16;;;;;;;6.62;3.10;;;;;;;24.96;49.62;101430.53;1770146;80;21025;-49
2021/06/07 06:58:42;;;;;;;7.15;3.02;;;;;;;24.95;49.63;101434.17;1773648;80;21062;-50
2021/06/07 07:01:09;;;;;;;4.95;2.95;;;;;;;24.97;50.02;101437.58;1782224;80;21054;-49
2021/06/07 07:03:38;;;;;;;13.28;4.55;;;;;;;25.09;49.96;101434.51;1783394;80;20982;-49
2021/06/07 07:06:05;;;;;;;6.92;3.87;;;;;;;25.26;49.68;101431.02;1775383;80;21015;-49
2021/06/07 07:08:32;;;;;;;7.95;3.65;;;;;;;25.55;48.74;101435.12;1783285;80;21006;-48
2021/06/07 07:11:01;;;;;;;6.10;3.00;;;;;;;25.77;48.70;101427.23;1778835;80;21506;-49
2021/06/07 07:13:28;;;;;;;4.22;3.02;;;;;;;25.92;48.44;101431.91;1773787;80;20963;-50
2021/06/07 07:15:54;;;;;;;5.12;3.47;;;;;;;26.06;48.05;101437.53;1779005;80;21034;-49
2021/06/07 07:18:21;;;;;;;6.08;3.27;;;;;;;26.10;47.55;101439.03;1773781;80;21572;-49
2021/06/07 07:20:48;;;;;;;3.87;3.05;;;;;;;26.10;47.34;101434.55;1771346;80;20991;-50
2021/06/07 07:23:15;;;;;;;5.37;4.05;;;;;;;26.10;47.34;101434.55;1772029;80;20999;-49
2021/06/07 07:25:42;;;;;;;4.53;3.20;;;;;;;26.13;47.83;101430.81;1778934;80;21054;-49
2021/06/07 07:28:09;;;;;;;4.03;3.00;;;;;;;26.13;47.80;101436.97;1771966;80;20990;-49
2021/06/07 07:30:36;;;;;;;5.05;3.60;;;;;;;26.07;47.64;101440.58;1781673;80;21073;-49
2021/06/07 07:33:04;;;;;;;6.60;3.62;;;;;;;25.95;48.10;101442.81;1774240;80;21565;-49
2021/06/07 07:35:30;;;;;;;7.22;3.40;;;;;;;25.84;48.91;101444.46;1769347;80;21003;-50
2021/06/07 07:37:57;;;;;;;6.60;5.60;;;;;;;25.79;48.96;101441.30;1772327;80;21022;-50
2021/06/07 07:40:24;;;;;;;4.35;3.52;;;;;;;25.73;49.43;101443.09;1776027;80;22397;-49
2021/06/07 07:42:53;;;;;;;8.93;5.30;;;;;;;25.73;49.43;101443.09;1773583;80;21025;-49
2021/06/07 07:45:20;;;;;;;13.80;11.33;;;;;;;25.70;49.75;101447.30;1770676;80;21003;-49
2021/06/07 07:47:47;;;;;;;14.58;10.70;;;;;;;25.68;49.60;101451.90;1783837;80;21537;-49
2021/06/07 07:50:17;;;;;;;7.75;5.58;;;;;;;25.66;49.74;101447.64;1769395;80;21062;-52
2021/06/07 07:52:45;;;;;;;11.05;4.78;;;;;;;25.61;49.83;101449.33;1771373;80;21494;-49
2021/06/07 07:55:18;;;;;;;6.30;4.35;;;;;;;25.57;49.79;101453.66;1785824;80;21022;-49
2021/06/07 07:57:46;;;;;;;5.50;3.30;;;;;;;25.53;50.18;101447.68;1781842;80;20975;-48
2021/06/07 08:00:15;;;;;;;4.87;3.70;;;;;;;25.52;50.29;101451.80;1765946;80;21026;-49
2021/06/07 08:02:42;;;;;;;4.22;3.10;;;;;;;25.48;50.60;101445.85;1771292;80;21026;-49
2021/06/07 08:05:10;;;;;;;4.20;3.02;;;;;;;25.47;50.98;101445.47;1783577;80;21506;-49
2021/06/07 08:07:37;;;;;;;5.70;2.90;;;;;;;25.48;50.29;101447.18;1777934;80;22348;-49
2021/06/07 08:10:05;;;;;;;4.60;2.85;;;;;;;25.50;50.56;101447.92;1778140;80;21033;-49
2021/06/07 08:12:34;;;;;;;5.67;3.22;;;;;;;25.50;50.95;101451.92;1769982;80;21573;-48
2021/06/07 08:15:05;;;;;;;6.10;3.27;;;;;;;25.53;51.56;101458.34;1777463;80;21034;-49
2021/06/07 08:17:32;;;;;;;5.62;3.17;;;;;;;25.55;51.75;101456.92;1777883;80;21061;-49
2021/06/07 08:19:58;;;;;;;7.95;3.30;;;;;;;25.55;51.65;101456.45;1770823;80;21025;-50
2021/06/07 08:22:26;;;;;;;3.85;3.08;;;;;;;25.58;51.57;101463.34;1781317;80;20995;-48
2021/06/07 08:24:53;;;;;;;5.22;4.17;;;;;;;25.62;51.72;101465.68;1774298;80;21603;-49
2021/06/07 08:27:20;;;;;;;5.42;3.52;;;;;;;25.71;50.78;101470.34;1772805;80;21042;-48
2021/06/07 08:29:49;;;;;;;5.95;3.67;;;;;;;25.80;50.32;101472.82;1769290;80;21511;-49
2021/06/07 08:32:17;;;;;;;6.05;4.08;;;;;;;25.84;50.43;101470.30;1759659;81;21114;-49
2021/06/07 08:34:43;;;;;;;6.97;4.50;;;;;;;25.88;50.00;101477.58;1761597;81;21027;-48
2021/06/07 08:37:10;;;;;;;6.45;3.77;;;;;;;25.87;49.97;101479.39;1762034;81;21055;-50
2021/06/07 08:39:37;;;;;;;7.85;3.60;;;;;;;25.88;50.29;101478.91;1762127;81;21030;-49
2021/06/07 08:42:06;;;;;;;5.33;3.55;;;;;;;25.87;50.47;101482.53;1761970;81;21460;-52
2021/06/07 08:44:33;;;;;;;4.30;3.17;;;;;;;25.83;50.59;101482.77;1762264;81;21467;-49
2021/06/07 08:46:59;;;;;;;4.72;2.92;;;;;;;25.91;50.52;101481.33;1763248;81;20995;-49
2021/06/07 08:49:28;;;;;;;4.45;2.80;;;;;;;25.88;50.81;101484.24;1764052;81;21062;-50
2021/06/07 08:51:54;;;;;;;14.05;2.90;;;;;;;25.87;51.06;101478.53;1761773;80;20975;-50
2021/06/07 08:54:21;;;;;;;4.95;3.10;;;;;;;25.86;50.80;101476.37;1756547;81;21052;-50
2021/06/07 08:56:48;;;;;;;6.00;2.80;;;;;;;25.87;50.43;101479.86;1747184;82;21021;-50
2021/06/07 08:59:15;;;;;;;2.90;2.37;;;;;;;25.81;50.29;101476.70;1753902;80;21014;-51
2021/06/07 09:01:42;;;;;;;2.25;2.00;;;;;;;25.83;50.32;101477.44;1753897;82;20961;-49
2021/06/07 09:04:16;;;;;;;2.55;2.25;;;;;;;25.84;50.60;101473.79;1753843;82;21561;-51
2021/06/07 09:06:48;;;;;;;5.45;2.02;;;;;;;25.78;50.74;101468.91;1740837;81;21031;-51
2021/06/07 09:09:17;;;;;;;4.83;2.40;;;;;;;25.71;51.10;101465.48;1741091;82;20987;-51
2021/06/07 09:11:57;;;;;;;4.67;2.60;;;;;;;25.71;51.33;101461.48;1734124;82;20995;-51
2021/06/07 09:14:34;;;;;;;4.28;2.05;;;;;;;25.80;50.80;101456.32;1740464;82;21070;-49
2021/06/07 09:17:00;;;;;;;9.13;2.95;;;;;;;25.82;51.02;101461.05;1740899;82;21007;-50
2021/06/07 09:19:30;;;;;;;3.67;2.00;;;;;;;25.81;51.06;101458.04;1716686;82;21066;-50
2021/06/07 09:22:24;;;;;;;2.37;2.17;;;;;;;25.84;51.24;101459.12;1740955;82;21074;-50
2021/06/07 09:25:11;;;;;;;2.90;2.47;;;;;;;25.88;51.02;101457.58;1703615;84;21051;-52
2021/06/07 09:27:39;;;;;;;3.47;2.40;;;;;;;25.91;51.28;101463.53;1690368;84;21510;-49
2021/06/07 09:30:27;;;;;;;3.17;2.30;;;;;;;25.95;51.55;101464.14;1705242;82;21521;-49
2021/06/07 09:33:19;;;;;;;2.90;2.12;;;;;;;25.97;51.55;101458.20;1653037;86;21136;-49
2021/06/07 09:35:50;;;;;;;2.52;2.20;;;;;;;26.00;51.33;101454.00;1652759;86;20990;-50
2021/06/07 09:38:16;;;;;;;3.67;2.00;;;;;;;26.04;51.45;101444.80;1595848;89;21541;-49
2021/06/07 09:40:44;;;;;;;2.08;1.87;;;;;;;26.08;51.37;101452.97;1575649;90;21369;-49
2021/06/07 09:43:11;;;;;;;3.75;2.02;;;;;;;26.13;51.37;101446.81;1577590;90;21153;-50
2021/06/07 09:45:54;;;;;;;4.55;2.80;;;;;;;26.15;51.24;101443.04;1576537;90;21118;-49
2021/06/07 09:48:17;;;;;;;4.53;2.30;;;;;;;26.20;51.44;101445.37;1569960;90;21077;-50
2021/06/07 09:50:58;;;;;;;3.55;1.85;;;;;;;26.28;51.17;101444.30;1576233;90;21053;-50
2021/06/07 09:53:43;;;;;;;4.90;1.87;;;;;;;26.34;51.20;101439.34;1586390;90;21082;-50
2021/06/07 09:56:10;;;;;;;3.22;2.10;;;;;;;26.43;50.80;101439.12;1569216;89;21089;-50
2021/06/07 09:58:39;;;;;;;3.15;2.20;;;;;;;26.47;50.37;101440.59;1576384;90;21069;-50
2021/06/07 10:01:16;;;;;;;4.75;2.10;;;;;;;26.49;50.31;101444.00;1580695;88;21069;-49
2021/06/07 10:03:48;;;;;;;4.05;2.10;;;;;;;26.45;50.59;101443.39;1603035;88;21051;-49
2021/06/07 10:06:24;;;;;;;3.15;2.00;;;;;;;26.43;50.72;101439.12;1602710;88;21153;-49
2021/06/07 10:08:59;;;;;;;3.83;2.20;;;;;;;26.39;50.96;101443.00;1614292;88;21543;-49
2021/06/07 10:11:40;;;;;;;2.17;2.00;;;;;;;26.35;51.38;101441.55;1600997;88;21586;-49
2021/06/07 10:14:19;;;;;;;3.05;2.15;;;;;;;26.34;51.71;101434.48;1587758;89;21062;-50
2021/06/07 10:17:01;;;;;;;3.25;2.33;;;;;;;26.32;52.04;101437.76;1637505;86;21089;-49
2021/06/07 10:19:48;;;;;;;4.08;2.30;;;;;;;26.20;52.43;101434.70;1604858;86;21113;-50
2021/06/07 10:22:09;;;;;;;5.03;1.83;;;;;;;26.18;52.82;101436.63;1658224;85;21590;-50
2021/06/07 10:24:36;;;;;;;2.52;2.33;;;;;;;26.26;52.70;101436.89;1708751;83;21323;-49
2021/06/07 10:27:04;;;;;;;4.22;2.10;;;;;;;26.28;52.67;101429.63;1710267;83;21074;-49
2021/06/07 10:29:35;;;;;;;4.25;2.22;;;;;;;26.31;52.50;101424.07;1660396;86;21050;-49
2021/06/07 10:32:12;;;;;;;4.37;2.47;;;;;;;26.35;52.61;101428.20;1612846;89;21058;-48
2021/06/07 10:35:02;;;;;;;2.45;1.98;;;;;;;26.40;52.34;101425.53;1608656;88;21038;-49
2021/06/07 10:37:31;;;;;;;4.20;2.10;;;;;;;26.36;52.57;101416.55;1649572;86;21107;-49
2021/06/07 10:40:21;;;;;;;2.40;2.20;;;;;;;26.37;52.26;101423.59;1686935;85;21054;-50
2021/06/07 10:42:59;;;;;;;3.70;2.10;;;;;;;26.38;51.83;101417.27;1683692;85;21021;-49
2021/06/07 10:45:28;;;;;;;6.65;2.22;;;;;;;26.45;51.43;101418.52;1683679;85;21024;-50
2021/06/07 10:47:55;;;;;;;4.62;2.40;;;;;;;26.47;51.64;101408.56;1683837;85;20996;-49
2021/06/07 10:50:25;;;;;;;2.35;2.10;;;;;;;26.49;51.83;101410.63;1691327;85;21042;-49
2021/06/07 10:52:57;;;;;;;3.15;2.30;;;;;;;26.57;51.34;101406.41;1680968;85;21038;-50
2021/06/07 10:55:39;;;;;;;4.62;2.60;;;;;;;26.57;51.34;101406.41;1684484;85;21016;-49
2021/06/07 10:58:12;;;;;;;2.27;1.90;;;;;;;26.66;51.69;101406.65;1665229;86;21073;-49
2021/06/07 11:00:42;;;;;;;3.27;2.27;;;;;;;26.70;51.23;101404.96;1665557;86;21049;-48
2021/06/07 11:03:28;;;;;;;2.80;1.82;;;;;;;26.74;50.54;101406.45;1642480;87;21041;-49
2021/06/07 11:05:57;;;;;;;5.37;1.87;;;;;;;26.80;49.97;101401.96;1642594;87;21065;-49
2021/06/07 11:08:31;;;;;;;4.35;1.90;;;;;;;26.87;49.75;101396.51;1642411;87;21064;-48
2021/06/07 11:11:09;;;;;;;3.02;2.00;;;;;;;26.94;50.00;101398.18;1571375;90;21110;-49
2021/06/07 11:13:50;;;;;;;2.58;2.27;;;;;;;26.99;50.05;101394.19;1567085;91;21135;-48
2021/06/07 11:16:35;;;;;;;3.05;2.27;;;;;;;27.03;49.45;101396.98;1571663;91;21560;-49
2021/06/07 11:19:03;;;;;;;2.83;1.75;;;;;;;27.07;48.99;101397.09;1574169;91;21968;-49
2021/06/07 11:21:43;;;;;;;5.10;2.55;;;;;;;27.09;48.99;101396.48;1572331;91;21080;-50
2021/06/07 11:24:31;;;;;;;3.67;2.17;;;;;;;27.04;48.85;101397.33;1570222;91;21069;-48
2021/06/07 11:26:59;;;;;;;3.42;2.67;;;;;;;26.97;49.40;101391.27;1570818;91;21001;-48
2021/06/07 11:29:29;;;;;;;3.50;2.15;;;;;;;26.88;49.89;101390.18;1583596;89;21636;-49
2021/06/07 11:31:58;;;;;;;3.17;2.12;;;;;;;26.82;50.28;101385.33;1595732;89;21193;-48
2021/06/07 11:34:43;;;;;;;4.47;2.20;;;;;;;26.80;50.25;101376.59;1591443;89;21540;-48